createdAt,value
2023-04-06T04:02:12.046Z,8.37
2023-04-06T04:04:44.152Z,8.97
2023-04-06T04:07:16.247Z,8.27
2023-04-06T04:09:48.307Z,8.83
2023-04-06T04:12:20.338Z,8.63
2023-04-06T04:14:52.372Z,9.33
2023-04-06T04:17:25.999Z,9.47
2023-04-06T04:19:58.052Z,9.27
2023-04-06T04:22:30.077Z,8.70
2023-04-06T04:25:02.127Z,9.13
2023-04-06T04:27:34.160Z,9.30
2023-04-06T04:30:06.938Z,9.10
2023-04-06T04:32:40.363Z,9.00
2023-04-06T04:35:12.403Z,8.87
2023-04-06T04:37:44.412Z,9.43
2023-04-06T04:40:16.455Z,9.07
2023-04-06T04:42:48.471Z,8.87
2023-04-06T04:45:20.509Z,8.17
2023-04-06T04:47:53.861Z,8.37
2023-04-06T04:50:25.951Z,7.93
2023-04-06T04:52:57.966Z,8.00
2023-04-06T04:55:29.981Z,8.10
2023-04-06T04:58:01.617Z,9.40
2023-04-06T05:00:33.322Z,8.40
2023-04-06T05:03:06.475Z,8.40
2023-04-06T05:05:39.649Z,7.70
2023-04-06T05:08:11.672Z,8.93
2023-04-06T05:10:43.398Z,7.83
2023-04-06T05:13:15.052Z,8.30
2023-04-06T05:15:46.769Z,7.93
2023-04-06T05:18:19.821Z,7.43
2023-04-06T05:20:51.482Z,7.17
2023-04-06T05:23:23.119Z,7.87
2023-04-06T05:25:54.808Z,8.67
2023-04-06T05:28:26.503Z,6.93
2023-04-06T05:30:58.332Z,7.00
2023-04-06T05:33:31.373Z,7.63
2023-04-06T05:36:03.091Z,7.73
2023-04-06T05:38:34.759Z,7.60
2023-04-06T05:41:06.802Z,7.40
2023-04-06T05:43:38.814Z,7.77
2023-04-06T05:46:10.872Z,6.90
2023-04-06T05:48:44.244Z,7.17
2023-04-06T05:51:16.284Z,7.33
2023-04-06T05:53:48.364Z,7.00
2023-04-06T05:56:20.391Z,6.70
2023-04-06T05:58:52.071Z,6.80
2023-04-06T06:01:23.775Z,6.50
2023-04-06T06:03:56.792Z,6.30
2023-04-06T06:06:28.775Z,5.82
2023-04-06T06:09:00.818Z,6.20
2023-04-06T06:11:32.839Z,6.10
2023-04-06T06:14:04.895Z,6.03
2023-04-06T06:16:37.016Z,6.50
2023-04-06T06:19:10.440Z,6.65
2023-04-06T06:21:42.455Z,6.22
2023-04-06T06:24:14.491Z,6.25
2023-04-06T06:26:46.554Z,6.63
2023-04-06T06:29:18.605Z,6.85
2023-04-06T06:31:50.746Z,5.85
2023-04-06T06:34:23.920Z,6.25
2023-04-06T06:36:55.863Z,6.20
2023-04-06T06:39:27.763Z,6.50
2023-04-06T06:41:59.458Z,6.75
2023-04-06T06:44:31.404Z,6.45
2023-04-06T06:47:03.160Z,6.18
2023-04-06T06:49:36.294Z,6.75
2023-04-06T06:52:08.007Z,6.53
2023-04-06T06:54:39.698Z,6.47
2023-04-06T06:57:11.349Z,6.63
2023-04-06T06:59:43.072Z,6.93
2023-04-06T07:02:14.966Z,6.47
2023-04-06T07:04:50.208Z,6.85
2023-04-06T07:07:21.972Z,6.85
2023-04-06T07:09:53.664Z,6.70
2023-04-06T07:12:25.392Z,6.43
2023-04-06T07:14:57.118Z,6.35
2023-04-06T07:17:28.823Z,6.72
2023-04-06T07:20:02.154Z,6.43
2023-04-06T07:22:33.846Z,5.97
2023-04-06T07:25:06.455Z,7.30
2023-04-06T07:27:38.189Z,6.82
2023-04-06T07:30:10.367Z,6.38
2023-04-06T07:32:42.109Z,6.13
2023-04-06T07:35:15.471Z,7.38
2023-04-06T07:37:47.238Z,6.25
2023-04-06T07:40:18.976Z,7.38
2023-04-06T07:42:50.674Z,7.45
2023-04-06T07:45:22.341Z,8.63
2023-04-06T07:47:54.092Z,7.32
2023-04-06T07:50:27.149Z,7.63
2023-04-06T07:52:58.793Z,6.82
2023-04-06T07:55:30.556Z,7.40
2023-04-06T07:58:02.238Z,6.78
2023-04-06T08:00:33.897Z,7.30
2023-04-06T08:03:05.632Z,7.32
2023-04-06T08:05:38.712Z,7.40
2023-04-06T08:08:10.358Z,6.93
2023-04-06T08:10:42.064Z,7.65
2023-04-06T08:13:13.726Z,7.05
2023-04-06T08:15:45.501Z,7.50
2023-04-06T08:18:17.178Z,7.70
2023-04-06T08:20:50.210Z,7.30
2023-04-06T08:23:21.865Z,7.00
2023-04-06T08:25:53.563Z,8.63
2023-04-06T08:28:25.258Z,7.93
2023-04-06T08:30:57.005Z,8.32
2023-04-06T08:33:28.691Z,7.70
2023-04-06T08:36:07.166Z,8.18
2023-04-06T08:38:38.870Z,7.72
2023-04-06T08:41:10.653Z,8.75
2023-04-06T08:43:44.125Z,8.35
2023-04-06T08:46:15.953Z,8.25
2023-04-06T08:48:47.640Z,8.55
2023-04-06T08:51:20.670Z,8.25
2023-04-06T08:53:52.360Z,8.30
2023-04-06T08:56:24.119Z,8.18
2023-04-06T08:58:56.254Z,9.07
2023-04-06T09:01:28.561Z,8.60
2023-04-06T09:04:00.916Z,8.90
2023-04-06T09:06:34.105Z,8.32
2023-04-06T09:09:05.780Z,8.65
2023-04-06T09:11:44.842Z,8.70
2023-04-06T09:14:16.548Z,9.60
2023-04-06T09:16:48.263Z,8.98
2023-04-06T09:19:19.932Z,8.20
2023-04-06T09:22:01.762Z,8.77
2023-04-06T09:24:42.083Z,9.48
2023-04-06T09:27:13.901Z,9.07
2023-04-06T09:29:45.650Z,8.27
2023-04-06T09:32:17.312Z,8.93
2023-04-06T09:34:50.684Z,9.60
2023-04-06T09:37:24.091Z,9.30
2023-04-06T09:40:03.316Z,10.35
2023-04-06T09:42:35.067Z,9.13
2023-04-06T09:45:07.845Z,9.73
2023-04-06T09:47:40.393Z,9.43
2023-04-06T09:50:12.933Z,9.80
2023-04-06T09:52:48.006Z,8.88
2023-04-06T09:55:23.632Z,9.00
2023-04-06T09:57:58.683Z,8.80
2023-04-06T10:00:30.350Z,8.48
2023-04-06T10:03:07.088Z,9.52
2023-04-06T10:05:44.884Z,9.27
2023-04-06T10:08:17.921Z,9.80
2023-04-06T10:10:50.099Z,9.93
2023-04-06T10:13:21.799Z,9.90
2023-04-06T10:15:53.591Z,9.18
2023-04-06T10:18:25.278Z,9.80
2023-04-06T10:20:58.528Z,8.98
2023-04-06T10:23:33.651Z,9.13
2023-04-06T10:26:05.380Z,9.13
2023-04-06T10:28:37.196Z,8.52
2023-04-06T10:31:08.961Z,9.88
2023-04-06T10:33:40.621Z,9.00
2023-04-06T10:36:12.879Z,9.20
2023-04-06T10:38:45.909Z,10.30
2023-04-06T10:41:18.247Z,10.43
2023-04-06T10:43:55.890Z,9.10
2023-04-06T10:46:28.288Z,9.60
2023-04-06T10:49:10.605Z,9.65
2023-04-06T10:51:42.313Z,10.38
2023-04-06T10:54:15.309Z,9.43
2023-04-06T10:56:46.994Z,9.73
2023-04-06T10:59:20.188Z,9.75
2023-04-06T11:01:51.950Z,10.00
2023-04-06T11:04:23.730Z,9.93
2023-04-06T11:06:55.428Z,9.52
2023-04-06T11:09:29.689Z,10.32
2023-04-06T11:12:01.419Z,10.00
2023-04-06T11:14:33.056Z,10.00
2023-04-06T11:17:04.803Z,10.90
2023-04-06T11:19:36.501Z,10.82
2023-04-06T11:22:08.743Z,11.07
2023-04-06T11:24:41.756Z,9.93
2023-04-06T11:27:13.446Z,11.15
2023-04-06T11:29:45.205Z,10.52
2023-04-06T11:32:22.938Z,11.65
2023-04-06T11:34:54.629Z,10.27
2023-04-06T11:37:27.378Z,10.52
2023-04-06T11:40:01.504Z,10.43
2023-04-06T11:42:33.149Z,11.73
2023-04-06T11:45:06.039Z,9.75
2023-04-06T11:47:38.280Z,9.75
2023-04-06T11:50:11.202Z,10.57
2023-04-06T11:52:42.968Z,10.90
2023-04-06T11:55:17.175Z,10.05
2023-04-06T11:57:48.823Z,8.88
2023-04-06T12:00:21.482Z,9.15
2023-04-06T12:02:53.216Z,8.23
2023-04-06T12:05:24.983Z,9.65
2023-04-06T12:07:57.510Z,10.05
2023-04-06T12:10:32.065Z,9.25
2023-04-06T12:13:05.638Z,10.23
2023-04-06T12:15:37.469Z,10.90
2023-04-06T12:18:09.178Z,10.30
2023-04-06T12:20:40.928Z,10.20
2023-04-06T12:23:12.565Z,8.82
2023-04-06T12:25:45.622Z,8.98
2023-04-06T12:28:17.523Z,10.07
2023-04-06T12:30:49.366Z,8.88
2023-04-06T12:33:21.110Z,9.18
2023-04-06T12:35:52.839Z,8.00
2023-04-06T12:38:24.567Z,9.80
2023-04-06T12:40:57.585Z,8.48
2023-04-06T12:43:29.267Z,10.05
2023-04-06T12:46:00.927Z,9.90
2023-04-06T12:48:32.614Z,10.18
2023-04-06T12:51:06.044Z,10.10
2023-04-06T12:53:37.743Z,9.95
2023-04-06T12:56:14.625Z,9.52
2023-04-06T12:58:46.510Z,9.25
2023-04-06T13:01:18.245Z,8.50
2023-04-06T13:03:50.136Z,10.05
2023-04-06T13:06:21.784Z,7.50
2023-04-06T13:08:53.471Z,8.48
2023-04-06T13:11:28.241Z,7.25
2023-04-06T13:14:00.372Z,6.68
2023-04-06T13:16:32.060Z,6.30
2023-04-06T13:19:03.830Z,5.75
2023-04-06T13:21:35.500Z,6.43
2023-04-06T13:24:07.431Z,6.32
2023-04-06T13:26:40.468Z,6.07
2023-04-06T13:29:12.158Z,7.57
2023-04-06T13:31:43.896Z,7.40
2023-04-06T13:34:15.676Z,6.78
2023-04-06T13:36:47.352Z,6.10
2023-04-06T13:39:19.049Z,5.68
2023-04-06T13:41:54.352Z,6.35
2023-04-06T13:44:26.043Z,6.00
2023-04-06T13:46:57.688Z,7.13
2023-04-06T13:49:29.398Z,7.15
2023-04-06T13:52:01.061Z,6.78
2023-04-06T13:54:32.757Z,7.43
2023-04-06T13:57:05.890Z,7.28
2023-04-06T13:59:37.627Z,6.50
2023-04-06T14:02:10.458Z,7.22
2023-04-06T14:04:42.182Z,6.60
2023-04-06T14:07:13.871Z,6.55
2023-04-06T14:09:45.623Z,6.55
2023-04-06T14:12:18.627Z,6.15
2023-04-06T14:14:50.395Z,6.68
2023-04-06T14:17:22.101Z,5.95
2023-04-06T14:19:53.837Z,6.63
2023-04-06T14:22:25.557Z,6.43
2023-04-06T14:24:57.253Z,6.00
2023-04-06T14:27:30.282Z,6.43
2023-04-06T14:30:01.947Z,6.55
2023-04-06T14:32:33.647Z,6.65
2023-04-06T14:35:07.145Z,6.63
2023-04-06T14:37:39.294Z,6.45
2023-04-06T14:40:11.716Z,5.90
2023-04-06T14:42:44.709Z,6.05
2023-04-06T14:45:16.491Z,5.97
2023-04-06T14:47:48.172Z,5.75
2023-04-06T14:50:19.870Z,5.55
2023-04-06T14:52:51.537Z,4.75
2023-04-06T14:55:23.199Z,4.82
2023-04-06T14:57:56.197Z,5.50
2023-04-06T15:00:27.966Z,5.30
2023-04-06T15:02:59.936Z,5.60
2023-04-06T15:05:32.140Z,5.10
2023-04-06T15:08:03.981Z,5.47
2023-04-06T15:10:35.681Z,5.63
2023-04-06T15:13:08.690Z,5.68
2023-04-06T15:15:41.557Z,5.78
2023-04-06T15:18:13.302Z,5.22
2023-04-06T15:20:45.008Z,5.03
2023-04-06T15:23:16.658Z,6.03
2023-04-06T15:25:48.322Z,5.85
2023-04-06T15:28:21.343Z,6.03
2023-04-06T15:30:53.960Z,7.40
2023-04-06T15:33:25.639Z,8.90
2023-04-06T15:35:57.367Z,8.48
2023-04-06T15:38:29.083Z,7.85
2023-04-06T15:41:00.762Z,8.30
2023-04-06T15:43:33.757Z,7.20
2023-04-06T15:48:37.109Z,8.75
2023-04-06T15:51:08.776Z,8.38
2023-04-06T15:53:40.431Z,10.55
2023-04-06T15:56:12.306Z,9.35
2023-04-06T15:58:45.448Z,9.40
2023-04-06T16:01:17.939Z,8.95
2023-04-06T16:03:49.755Z,8.57
2023-04-06T16:06:21.531Z,12.38
2023-04-06T16:08:53.253Z,9.18
2023-04-06T16:11:24.911Z,9.80
2023-04-06T16:13:58.225Z,13.57
2023-04-06T16:16:30.129Z,9.20
2023-04-06T16:19:01.936Z,17.90
2023-04-06T16:21:33.650Z,12.18
2023-04-06T16:24:05.661Z,11.57
2023-04-06T16:26:37.356Z,9.73
2023-04-06T16:29:10.412Z,8.98
2023-04-06T16:31:42.125Z,11.13
2023-04-06T16:34:13.964Z,11.18
2023-04-06T16:36:45.618Z,11.35
2023-04-06T16:39:17.335Z,11.82
2023-04-06T16:41:49.013Z,10.30
2023-04-06T16:44:22.042Z,9.82
2023-04-06T16:46:53.704Z,9.83
2023-04-06T16:49:25.390Z,8.57
2023-04-06T16:51:57.224Z,8.97
2023-04-06T16:54:28.916Z,9.45
2023-04-06T16:57:00.588Z,8.73
2023-04-06T16:59:33.640Z,8.63
2023-04-06T17:02:05.414Z,8.77
2023-04-06T17:04:37.162Z,9.43
2023-04-06T17:07:08.823Z,9.07
2023-04-06T17:09:40.529Z,8.50
2023-04-06T17:12:12.164Z,9.25
2023-04-06T17:14:45.276Z,8.63
2023-04-06T17:17:17.051Z,8.88
2023-04-06T17:19:48.832Z,8.15
2023-04-06T17:22:20.624Z,8.23
2023-04-06T17:24:52.506Z,8.23
2023-04-06T17:27:24.161Z,8.20
2023-04-06T17:29:57.256Z,8.02
2023-04-06T17:32:29.001Z,8.70
2023-04-06T17:35:00.674Z,8.55
2023-04-06T17:37:32.361Z,9.00
2023-04-06T17:40:04.958Z,9.15
2023-04-06T17:42:36.628Z,9.07
2023-04-06T17:45:10.058Z,8.57
2023-04-06T17:47:41.781Z,9.07
2023-04-06T17:50:13.482Z,9.10
2023-04-06T17:55:21.769Z,9.68
2023-04-06T17:57:53.433Z,9.70
2023-04-06T18:00:26.590Z,10.07
2023-04-06T18:02:58.355Z,10.40
2023-04-06T18:05:30.044Z,10.82
2023-04-06T18:08:01.727Z,10.02
2023-04-06T18:10:37.030Z,11.38
2023-04-06T18:13:08.694Z,10.35
2023-04-06T18:15:42.163Z,11.97
2023-04-06T18:18:14.196Z,11.40
2023-04-06T18:20:46.225Z,12.50
2023-04-06T18:23:18.224Z,12.13
2023-04-06T18:25:50.254Z,12.43
2023-04-06T18:28:22.267Z,11.70
2023-04-06T18:30:55.696Z,12.07
2023-04-06T18:33:27.735Z,10.37
2023-04-06T18:35:59.801Z,10.03
2023-04-06T18:38:31.459Z,10.60
2023-04-06T18:41:03.161Z,9.07
2023-04-06T18:43:35.009Z,8.73
2023-04-06T18:46:11.599Z,10.87
2023-04-06T18:48:43.318Z,8.53
2023-04-06T18:51:14.989Z,9.57
2023-04-06T18:53:46.651Z,9.00
2023-04-06T18:56:19.015Z,7.00
2023-04-06T18:58:50.996Z,6.87
2023-04-06T19:01:24.865Z,6.83
2023-04-06T19:03:57.206Z,9.63
2023-04-06T19:06:29.195Z,6.83
2023-04-06T19:09:00.845Z,6.63
2023-04-06T19:11:32.503Z,6.20
2023-04-06T19:14:04.205Z,6.32
2023-04-06T19:16:37.307Z,6.63
2023-04-06T19:19:09.023Z,6.97
2023-04-06T19:21:40.700Z,8.50
2023-04-06T19:24:12.363Z,8.80
2023-04-06T19:26:44.053Z,8.93
2023-04-06T19:29:15.754Z,9.00
2023-04-06T19:31:48.827Z,10.68
2023-04-06T19:34:20.519Z,9.30
2023-04-06T19:36:52.148Z,10.00
2023-04-06T19:39:23.837Z,9.88
2023-04-06T19:41:56.130Z,9.57
2023-04-06T19:44:27.853Z,9.03
2023-04-06T19:47:00.847Z,9.80
2023-04-06T19:49:32.497Z,10.75
2023-04-06T19:52:04.289Z,10.07
2023-04-06T19:54:36.109Z,10.02
2023-04-06T19:57:07.834Z,10.20
2023-04-06T19:59:39.497Z,10.07
2023-04-06T20:02:12.571Z,10.48
2023-04-06T20:04:44.364Z,10.38
2023-04-06T20:07:16.027Z,9.68
2023-04-06T20:09:47.683Z,9.35
2023-04-06T20:12:19.319Z,8.80
2023-04-06T20:14:51.134Z,9.47
2023-04-06T20:17:24.158Z,9.07
2023-04-06T20:19:56.018Z,9.25
2023-04-06T20:22:27.699Z,8.90
2023-04-06T20:24:59.373Z,8.50
2023-04-06T20:27:31.010Z,8.50
2023-04-06T20:30:02.726Z,8.73
2023-04-06T20:32:35.831Z,7.90
2023-04-06T20:35:08.208Z,7.88
2023-04-06T20:37:39.881Z,7.82
2023-04-06T20:40:12.256Z,7.88
2023-04-06T20:42:43.932Z,7.67
2023-04-06T20:45:15.651Z,7.70
2023-04-06T20:47:50.730Z,7.88
2023-04-06T20:50:22.547Z,8.77
2023-04-06T20:52:54.256Z,9.27
2023-04-06T20:55:25.958Z,8.70
2023-04-06T20:57:57.590Z,8.90
2023-04-06T21:00:29.255Z,9.10
2023-04-06T21:03:02.485Z,10.40
2023-04-06T21:05:34.303Z,9.98
2023-04-06T21:08:06.055Z,9.68
2023-04-06T21:10:37.999Z,10.53
2023-04-06T21:13:09.630Z,9.45
2023-04-06T21:15:41.344Z,11.60
2023-04-06T21:18:14.473Z,11.93
2023-04-06T21:20:46.209Z,9.85
2023-04-06T21:23:17.851Z,10.30
2023-04-06T21:25:49.605Z,9.30
2023-04-06T21:28:21.272Z,9.77
2023-04-06T21:30:53.061Z,9.70
2023-04-06T21:33:26.094Z,8.70
2023-04-06T21:35:57.757Z,9.07
2023-04-06T21:38:29.411Z,9.18
2023-04-06T21:41:01.133Z,8.60
2023-04-06T21:43:32.789Z,10.57
2023-04-06T21:46:04.533Z,9.30
2023-04-06T21:48:37.530Z,9.43
2023-04-06T21:51:09.221Z,9.37
2023-04-06T21:53:40.871Z,8.97
2023-04-06T21:56:12.730Z,9.37
2023-04-06T21:58:44.421Z,8.35
